Terminal Aerodrome Forecast
Issued by NWS Wilmington, OH

Home | Current Version | Previous Version | Text Only | Print | Product List | Glossary On
Versions: 1 2 3 4 5 6 7 8 9 10 11 12 13 14 15 16 17 18 19 20 21 22 23 24 25 26 27 28 29
000
FTUS41 KILN 050857 AAA
TAFCVG
TAF AMD
KCVG 050857Z 0509/0612 00000KT P6SM SCT150 BKN250
     FM051300 03004KT P6SM SCT150
     FM051700 32004KT P6SM FEW050 SCT120
     FM060000 05006KT P6SM SCT050 BKN120
     FM060300 09005KT P6SM VCSH BKN050 OVC120
     FM060800 09005KT P6SM -SHRA BKN040 OVC100=

USA.gov is the U.S. government's official web portal to all federal, state and local government web resources and services.